Time;durP1;ratioP1;P1;durP2;ratioP2;P2;SDS_P1;SDS_P2;PMS_P1;PMS_P2;Temp;Humidity;BMP_temperature;BMP_pressure;BME280_temperature;BME280_humidity;BME280_pressure;Samples;Min_cycle;Max_cycle;Signal;HPM_P1;HPM_P2
2021/03/01 00:03:35;;;;;;;38.70;21.73;;;;;;;2.66;81.34;100176.92;506323;1105;104328;-42
2021/03/01 00:13:40;;;;;;;34.65;19.50;;;;;;;2.69;81.44;100192.31;506164;1105;104424;-40
2021/03/01 00:23:45;;;;;;;37.77;20.20;;;;;;;2.69;81.44;100179.25;506314;1105;105489;-43
2021/03/01 00:33:49;;;;;;;35.80;18.57;;;;;;;2.69;81.07;100177.47;506002;1104;104993;-41
2021/03/01 00:43:54;;;;;;;36.60;17.53;;;;;;;2.72;81.51;100182.41;506163;1105;104347;-41
2021/03/01 00:53:59;;;;;;;34.60;18.47;;;;;;;2.77;81.10;100188.02;506411;1105;104355;-41
2021/03/01 01:14:22;;;;;;;34.30;17.77;;;;;;;2.71;81.66;100187.77;506289;1105;104347;-43
2021/03/01 01:24:29;;;;;;;31.30;17.90;;;;;;;2.73;81.22;100186.66;506158;1105;104325;-41
2021/03/01 01:34:35;;;;;;;44.83;21.37;;;;;;;2.75;81.22;100191.73;506276;1105;104348;-40
2021/03/01 01:44:40;;;;;;;44.80;20.77;;;;;;;2.69;81.38;100200.97;506292;1105;104347;-44
2021/03/01 01:54:44;;;;;;;30.47;19.10;;;;;;;2.71;81.64;100199.03;506201;1105;104399;-42
2021/03/01 02:04:56;;;;;;;41.90;19.97;;;;;;;2.73;81.89;100198.89;506312;1105;104354;-43
2021/03/01 02:15:03;;;;;;;36.27;17.80;;;;;;;2.80;81.59;100201.76;506176;1105;104350;-43
2021/03/01 02:25:23;;;;;;;51.35;23.00;;;;;;;2.72;82.01;100199.86;510852;1090;104386;-40
2021/03/01 02:35:30;;;;;;;39.75;18.65;;;;;;;2.78;81.28;100202.73;509558;1099;104438;-41
2021/03/01 02:45:35;;;;;;;42.00;22.10;;;;;;;2.81;81.40;100203.41;509673;1098;104341;-41
2021/03/01 02:55:43;;;;;;;36.00;19.27;;;;;;;2.82;81.91;100205.05;508187;1099;104326;-41
2021/03/01 03:05:49;;;;;;;38.83;18.23;;;;;;;2.83;81.47;100207.52;509800;1098;104667;-41
2021/03/01 03:15:58;;;;;;;40.77;21.47;;;;;;;2.80;81.62;100213.03;509706;1099;104293;-41
2021/03/01 03:26:03;;;;;;;36.05;20.37;;;;;;;2.78;81.41;100214.96;509296;1098;104685;-40
2021/03/01 03:36:08;;;;;;;38.40;18.95;;;;;;;2.80;81.45;100215.64;508105;1097;105088;-41
2021/03/01 03:56:36;;;;;;;34.37;17.23;;;;;;;2.87;81.21;100235.04;508258;1099;104447;-41
2021/03/01 04:06:43;;;;;;;44.85;20.15;;;;;;;2.91;81.14;100225.12;508049;1099;104604;-40
2021/03/01 04:16:51;;;;;;;47.53;22.50;;;;;;;2.80;81.71;100230.50;508123;1098;104689;-43
2021/03/01 04:26:58;;;;;;;42.83;20.03;;;;;;;2.82;81.34;100239.02;508116;1098;104370;-43
2021/03/01 04:37:02;;;;;;;35.10;19.53;;;;;;;2.86;81.61;100237.80;508052;1098;104364;-41
2021/03/01 04:47:09;;;;;;;41.73;20.43;;;;;;;2.91;81.32;100244.23;507982;1099;104377;-41
2021/03/01 04:57:13;;;;;;;35.13;19.40;;;;;;;2.87;81.46;100248.10;508166;1099;104743;-41
2021/03/01 05:07:24;;;;;;;37.13;19.07;;;;;;;2.93;81.36;100255.37;508185;1099;104785;-40
2021/03/01 05:17:29;;;;;;;54.97;24.03;;;;;;;2.81;81.37;100263.48;508070;1098;104671;-40
2021/03/01 05:27:34;;;;;;;42.57;21.03;;;;;;;2.83;81.09;100269.39;508304;1098;104392;-39
2021/03/01 05:37:39;;;;;;;38.43;18.77;;;;;;;2.86;81.35;100279.59;507961;1099;104367;-41
2021/03/01 05:47:44;;;;;;;37.00;19.23;;;;;;;2.92;80.80;100279.84;508088;1099;104301;-41
2021/03/01 05:57:51;;;;;;;35.50;17.90;;;;;;;2.95;81.20;100279.56;508332;1099;104418;-40
2021/03/01 06:07:56;;;;;;;41.73;22.23;;;;;;;2.90;81.24;100278.34;508315;1099;104627;-40
2021/03/01 06:18:15;;;;;;;39.20;19.53;;;;;;;2.87;81.34;100289.90;508123;1099;104261;-39
2021/03/01 06:28:27;;;;;;;41.00;20.50;;;;;;;2.91;81.02;100306.94;508120;1099;104383;-41
2021/03/01 06:38:35;;;;;;;37.07;21.43;;;;;;;3.03;80.98;100315.44;508239;1099;104628;-40
2021/03/01 06:48:42;;;;;;;50.80;24.80;;;;;;;3.08;80.89;100328.94;508219;1099;104690;-41
2021/03/01 06:58:48;;;;;;;46.20;24.43;;;;;;;3.16;81.06;100333.45;508186;1099;104329;-41
2021/03/01 07:08:54;;;;;;;40.80;23.33;;;;;;;3.19;81.09;100338.39;507964;1099;104329;-39
2021/03/01 07:19:00;;;;;;;58.45;29.15;;;;;;;3.10;81.34;100363.59;508205;1099;104655;-41
2021/03/01 07:29:06;;;;;;;44.33;26.03;;;;;;;3.18;81.24;100357.66;508325;1099;104683;-40
2021/03/01 07:39:11;;;;;;;41.57;20.53;;;;;;;3.31;81.34;100363.40;508238;1098;104786;-40
2021/03/01 07:49:35;;;;;;;23.13;12.90;;;;;;;3.41;81.25;100373.86;508012;1099;104264;-40
2021/03/01 07:59:41;;;;;;;67.17;31.33;;;;;;;3.46;81.00;100382.09;508190;1099;104721;-40
2021/03/01 08:09:54;;;;;;;54.95;26.50;;;;;;;3.48;80.71;100388.83;508102;1099;104379;-42
2021/03/01 08:20:20;;;;;;;55.55;26.55;;;;;;;3.40;80.97;100401.80;508472;1098;104312;-40
2021/03/01 08:30:33;;;;;;;32.40;19.27;;;;;;;3.55;80.86;100407.39;508156;1099;104325;-39
2021/03/01 08:40:50;;;;;;;51.87;26.03;;;;;;;3.68;80.95;100416.59;507950;1099;104316;-42
2021/03/01 08:50:56;;;;;;;75.03;37.90;;;;;;;3.52;80.89;100429.42;508239;1099;104641;-39
2021/03/01 09:01:03;;;;;;;45.60;22.37;;;;;;;3.49;80.77;100432.33;508232;1098;104383;-42
2021/03/01 09:21:32;;;;;;;31.50;19.73;;;;;;;3.80;80.79;100426.91;508083;1099;104342;-39
2021/03/01 09:31:40;;;;;;;43.07;20.67;;;;;;;3.86;80.67;100432.39;507975;1099;104658;-43
2021/03/01 09:52:03;;;;;;;54.87;25.60;;;;;;;3.71;80.33;100457.35;508056;1099;104331;-39
2021/03/01 10:02:08;;;;;;;34.10;15.90;;;;;;;3.71;80.20;100475.66;508111;1099;104329;-39
2021/03/01 10:12:14;;;;;;;30.37;15.70;;;;;;;3.56;80.14;100466.62;508357;1098;104331;-39
2021/03/01 10:32:39;;;;;;;47.20;20.97;;;;;;;3.48;80.74;100475.14;508413;1098;104322;-41
2021/03/01 10:42:45;;;;;;;49.47;22.33;;;;;;;3.60;80.53;100488.91;508120;1098;104546;-39
2021/03/01 10:52:50;;;;;;;23.53;13.97;;;;;;;3.74;79.93;100480.61;508146;1099;104329;-39
2021/03/01 11:02:55;;;;;;;34.63;18.63;;;;;;;3.94;80.27;100476.16;508213;1099;104252;-39
2021/03/01 11:23:19;;;;;;;42.45;20.05;;;;;;;3.78;80.04;100478.53;508124;1099;104255;-42
2021/03/01 11:33:24;;;;;;;29.13;16.27;;;;;;;3.89;80.25;100467.92;507990;1099;104338;-39
2021/03/01 11:43:29;;;;;;;32.87;17.47;;;;;;;4.11;79.96;100480.67;508000;1097;104699;-41
2021/03/01 11:53:34;;;;;;;33.30;17.77;;;;;;;3.98;79.75;100475.73;507941;1099;104342;-40
2021/03/01 12:03:39;;;;;;;47.50;22.00;;;;;;;3.92;79.75;100468.45;508002;1099;104806;-40
2021/03/01 12:13:45;;;;;;;33.87;15.77;;;;;;;4.18;79.81;100473.89;508097;1099;104376;-40
2021/03/01 12:23:50;;;;;;;30.35;15.25;;;;;;;4.11;79.14;100472.82;508213;1099;104284;-40
2021/03/01 12:33:54;;;;;;;35.17;17.63;;;;;;;4.03;79.48;100475.34;507997;1098;104322;-39
2021/03/01 12:44:00;;;;;;;53.53;26.87;;;;;;;3.89;79.34;100465.30;508189;1099;104284;-42
2021/03/01 12:54:04;;;;;;;42.10;20.57;;;;;;;3.92;79.36;100457.99;508043;1099;104597;-40
2021/03/01 13:04:09;;;;;;;25.67;14.13;;;;;;;4.05;79.15;100446.39;508321;1097;104307;-40
2021/03/01 13:14:14;;;;;;;24.25;14.20;;;;;;;4.13;79.23;100449.11;508163;1099;104361;-40
2021/03/01 13:24:19;;;;;;;56.90;27.13;;;;;;;4.12;79.39;100437.81;507884;1099;104730;-41
2021/03/01 13:34:24;;;;;;;43.93;22.27;;;;;;;4.08;79.24;100446.93;508156;1098;104734;-40
2021/03/01 13:44:28;;;;;;;32.23;16.17;;;;;;;4.05;78.69;100435.92;508118;1099;104687;-42
2021/03/01 13:54:33;;;;;;;23.77;14.20;;;;;;;4.17;79.06;100432.97;508365;1099;104728;-40
2021/03/01 14:04:39;;;;;;;24.50;13.83;;;;;;;4.29;78.65;100425.77;508138;1099;104475;-40
2021/03/01 14:14:44;;;;;;;36.27;18.00;;;;;;;4.28;79.01;100417.08;508412;1099;104335;-40
2021/03/01 14:24:48;;;;;;;35.43;19.13;;;;;;;4.27;79.16;100420.67;508128;1099;104334;-40
2021/03/01 14:34:54;;;;;;;35.50;19.10;;;;;;;4.11;78.38;100424.88;508089;1099;104252;-39
2021/03/01 14:44:59;;;;;;;26.40;14.97;;;;;;;4.30;78.81;100422.17;508110;1099;104705;-41
2021/03/01 14:55:02;;;;;;;33.60;17.90;;;;;;;4.23;78.76;100419.29;508100;1099;104663;-40
2021/03/01 15:05:08;;;;;;;54.70;29.27;;;;;;;4.16;78.81;100409.55;508160;1099;104258;-41
2021/03/01 15:15:12;;;;;;;45.77;23.70;;;;;;;4.09;78.34;100411.11;508313;1099;104341;-41
2021/03/01 15:25:17;;;;;;;32.87;17.77;;;;;;;3.86;78.69;100403.61;508024;1098;104668;-41
2021/03/01 15:35:22;;;;;;;37.40;22.07;;;;;;;3.90;78.55;100404.14;508051;1099;104701;-41
2021/03/01 15:45:27;;;;;;;41.97;22.40;;;;;;;3.80;78.78;100406.80;507975;1099;104370;-40
2021/03/01 15:55:32;;;;;;;60.30;29.97;;;;;;;3.74;78.68;100404.73;508200;1099;104323;-41
2021/03/01 16:05:37;;;;;;;74.90;35.60;;;;;;;3.62;79.08;100401.48;508106;1099;104302;-44
2021/03/01 16:15:43;;;;;;;77.27;35.83;;;;;;;3.61;79.01;100401.62;508213;1098;104306;-40
2021/03/01 16:25:50;;;;;;;58.95;29.90;;;;;;;3.74;79.07;100407.35;508511;1099;104345;-42
2021/03/01 16:35:54;;;;;;;46.03;25.17;;;;;;;3.90;78.91;100409.38;508327;1098;104604;-41
2021/03/01 16:45:59;;;;;;;74.37;37.50;;;;;;;3.82;78.71;100407.48;508156;1099;104332;-40
2021/03/01 16:56:05;;;;;;;70.00;34.70;;;;;;;3.55;78.82;100412.63;508159;1099;104254;-41
2021/03/01 17:16:35;;;;;;;38.27;20.50;;;;;;;3.24;79.06;100419.83;508016;1096;104255;-40
2021/03/01 17:26:41;;;;;;;37.20;19.77;;;;;;;3.25;78.69;100422.31;508118;1099;104734;-43
2021/03/01 17:36:47;;;;;;;33.47;18.57;;;;;;;3.29;78.96;100421.06;508167;1098;104380;-41
2021/03/01 17:46:51;;;;;;;76.03;36.33;;;;;;;3.27;79.22;100409.09;508126;1099;104730;-42
2021/03/01 17:56:57;;;;;;;57.47;26.83;;;;;;;3.25;79.23;100411.02;508401;1098;105803;-41
2021/03/01 18:07:05;;;;;;;45.50;24.43;;;;;;;3.34;79.25;100411.03;508121;1099;104315;-42
2021/03/01 18:17:10;;;;;;;56.13;24.13;;;;;;;3.44;79.06;100389.27;508108;1098;104657;-40
2021/03/01 18:27:20;;;;;;;52.40;24.00;;;;;;;3.45;79.05;100390.91;508163;1099;105624;-42
2021/03/01 18:37:28;;;;;;;76.80;38.10;;;;;;;3.22;78.84;100391.22;508274;1099;104706;-41
2021/03/01 18:47:35;;;;;;;69.20;31.57;;;;;;;3.13;79.10;100401.70;508007;1099;104722;-41
2021/03/01 18:57:42;;;;;;;63.37;33.03;;;;;;;3.11;79.16;100404.45;508083;1099;104628;-41
2021/03/01 19:07:47;;;;;;;60.03;30.50;;;;;;;3.10;79.33;100402.80;508057;1099;104657;-40
2021/03/01 19:28:10;;;;;;;;;;;;;;;2.91;79.02;100421.08;508184;1098;104728;-41
2021/03/01 19:38:15;;;;;;;79.53;37.40;;;;;;;2.78;79.43;100410.88;508022;1099;104451;-41
2021/03/01 19:48:19;;;;;;;62.17;30.93;;;;;;;2.70;79.19;100415.97;508261;1099;104277;-42
2021/03/01 19:58:25;;;;;;;47.63;24.93;;;;;;;2.63;79.38;100420.09;508143;1099;104370;-41
2021/03/01 20:08:29;;;;;;;74.67;38.63;;;;;;;2.85;79.82;100425.08;508058;1099;104647;-41
2021/03/01 20:18:34;;;;;;;73.10;32.77;;;;;;;2.61;79.38;100432.46;508086;1099;104697;-44
2021/03/01 20:28:39;;;;;;;66.83;33.23;;;;;;;2.44;79.46;100426.91;508065;1098;104386;-41
2021/03/01 20:38:44;;;;;;;64.27;32.97;;;;;;;2.38;79.71;100431.85;508020;1099;104329;-40
2021/03/01 20:48:49;;;;;;;53.23;27.17;;;;;;;2.55;80.05;100428.58;507916;1099;104704;-43
2021/03/01 20:58:57;;;;;;;61.10;30.27;;;;;;;2.58;80.39;100417.86;508324;1099;104275;-42
2021/03/01 21:09:02;;;;;;;86.70;38.67;;;;;;;2.70;79.71;100411.56;508142;1099;104603;-41
2021/03/01 21:19:07;;;;;;;83.05;38.65;;;;;;;2.57;80.15;100425.83;507957;1099;104400;-41
2021/03/01 21:29:13;;;;;;;70.90;36.30;;;;;;;2.33;79.96;100429.61;508396;1098;104619;-42
2021/03/01 21:39:19;;;;;;;66.07;34.97;;;;;;;2.41;80.52;100416.73;508010;1099;104443;-41
2021/03/01 21:49:26;;;;;;;100.30;52.00;;;;;;;2.54;80.58;100413.05;508158;1098;104360;-42
2021/03/01 21:59:30;;;;;;;103.60;49.03;;;;;;;2.62;80.78;100415.83;508093;1099;104441;-41
2021/03/01 22:09:36;;;;;;;95.60;44.50;;;;;;;2.48;80.52;100429.25;508101;1099;104820;-40
2021/03/01 22:19:43;;;;;;;62.00;32.13;;;;;;;2.56;80.37;100411.95;508281;1099;104636;-40
2021/03/01 22:29:55;;;;;;;88.43;44.80;;;;;;;2.69;80.09;100419.55;507842;1099;104402;-40
2021/03/01 22:40:02;;;;;;;82.20;37.45;;;;;;;2.50;79.76;100412.49;507933;1099;104333;-41
2021/03/01 22:50:09;;;;;;;84.83;38.73;;;;;;;2.39;80.73;100394.34;507981;1098;104328;-42
2021/03/01 23:00:17;;;;;;;61.17;31.10;;;;;;;2.51;80.27;100403.70;508254;1099;104666;-40
2021/03/01 23:10:22;;;;;;;75.33;39.37;;;;;;;2.44;80.17;100405.20;508550;1099;104322;-40
2021/03/01 23:20:28;;;;;;;81.13;39.70;;;;;;;2.36;80.00;100395.41;508156;1098;104409;-41
2021/03/01 23:30:33;;;;;;;88.43;39.23;;;;;;;2.18;80.27;100404.86;508168;1099;104625;-41
2021/03/01 23:40:39;;;;;;;85.63;39.27;;;;;;;2.22;80.63;100408.84;507959;1099;104342;-41
2021/03/01 23:50:43;;;;;;;99.03;45.10;;;;;;;2.19;80.54;100406.50;508329;1099;104332;-40
